createdAt,value
2022-10-17T00:00:01.817Z,1026.4
2022-10-17T00:01:01.831Z,1026.4
2022-10-17T00:02:01.827Z,1026.4
2022-10-17T00:03:01.918Z,1026.4
2022-10-17T00:04:01.686Z,1026.4
2022-10-17T00:05:02.753Z,1026.5
2022-10-17T00:06:02.633Z,1026.5
2022-10-17T00:07:02.712Z,1026.4
2022-10-17T00:08:02.557Z,1026.5
2022-10-17T00:09:02.661Z,1026.5
2022-10-17T00:10:02.690Z,1026.5
2022-10-17T00:11:02.790Z,1026.5
2022-10-17T00:12:02.580Z,1026.5
2022-10-17T00:13:02.631Z,1026.6
2022-10-17T00:14:02.515Z,1026.6
2022-10-17T00:15:02.619Z,1026.5
2022-10-17T00:16:02.353Z,1026.5
2022-10-17T00:17:02.502Z,1026.6
2022-10-17T00:18:02.570Z,1026.5
2022-10-17T00:19:02.994Z,1026.5
2022-10-17T00:20:01.903Z,1026.6
2022-10-17T00:21:01.718Z,1026.5
2022-10-17T00:22:02.741Z,1026.6
2022-10-17T00:23:02.582Z,1026.6
2022-10-17T00:24:02.749Z,1026.6
2022-10-17T00:25:02.488Z,1026.6
2022-10-17T00:26:02.546Z,1026.6
2022-10-17T00:27:02.400Z,1026.6
2022-10-17T00:28:02.448Z,1026.6
2022-10-17T00:29:02.520Z,1026.6
2022-10-17T00:30:02.290Z,1026.5
2022-10-17T00:31:02.346Z,1026.6
2022-10-17T00:32:02.123Z,1026.5
2022-10-17T00:33:02.171Z,1026.5
2022-10-17T00:34:01.997Z,1026.6
2022-10-17T00:35:02.020Z,1026.6
2022-10-17T00:36:01.849Z,1026.6
2022-10-17T00:37:01.843Z,1026.5
2022-10-17T00:38:01.717Z,1026.6
2022-10-17T00:39:02.745Z,1026.6
2022-10-17T00:40:02.543Z,1026.6
2022-10-17T00:41:02.596Z,1026.6
2022-10-17T00:42:02.469Z,1026.6
2022-10-17T00:43:02.501Z,1026.6
2022-10-17T00:44:02.409Z,1026.7
2022-10-17T00:45:02.385Z,1026.7
2022-10-17T00:46:02.201Z,1026.6
2022-10-17T00:47:01.817Z,1026.6
2022-10-17T00:48:01.833Z,1026.7
2022-10-17T00:49:01.667Z,1026.6
2022-10-17T00:51:02.579Z,1026.6
2022-10-17T00:52:02.662Z,1026.7
2022-10-17T00:53:02.457Z,1026.7
2022-10-17T00:54:02.497Z,1026.7
2022-10-17T00:55:02.443Z,1026.6
2022-10-17T00:56:02.375Z,1026.7
2022-10-17T00:57:02.318Z,1026.7
2022-10-17T00:58:02.336Z,1026.7
2022-10-17T00:59:02.413Z,1026.7
2022-10-17T01:00:02.226Z,1026.7
2022-10-17T01:01:02.372Z,1026.7
2022-10-17T01:02:02.183Z,1026.7
2022-10-17T01:03:02.209Z,1026.6
2022-10-17T01:04:02.023Z,1026.7
2022-10-17T01:05:02.104Z,1026.7
2022-10-17T01:06:01.939Z,1026.6
2022-10-17T01:07:01.992Z,1026.7
2022-10-17T01:08:01.751Z,1026.6
2022-10-17T01:09:01.859Z,1026.7
2022-10-17T01:10:02.770Z,1026.7
2022-10-17T01:11:01.792Z,1026.7
2022-10-17T01:12:01.900Z,1026.6
2022-10-17T01:13:01.762Z,1026.6
2022-10-17T01:14:01.816Z,1026.6
2022-10-17T01:15:02.762Z,1026.6
2022-10-17T01:16:02.579Z,1026.6
2022-10-17T01:17:02.603Z,1026.6
2022-10-17T01:18:02.701Z,1026.6
2022-10-17T01:19:02.516Z,1026.6
2022-10-17T01:20:02.613Z,1026.6
2022-10-17T01:21:02.375Z,1026.6
2022-10-17T01:22:02.439Z,1026.7
2022-10-17T01:23:02.322Z,1026.6
2022-10-17T01:24:02.224Z,1026.6
2022-10-17T01:25:02.234Z,1026.7
2022-10-17T01:26:02.085Z,1026.7
2022-10-17T01:27:02.115Z,1026.6
2022-10-17T01:28:01.923Z,1026.7
2022-10-17T01:29:02.005Z,1026.7
2022-10-17T01:30:01.851Z,1026.7
2022-10-17T01:31:01.775Z,1026.7
2022-10-17T01:32:02.679Z,1026.7
2022-10-17T01:33:02.524Z,1026.7
2022-10-17T01:34:02.579Z,1026.8
2022-10-17T01:35:02.542Z,1026.7
2022-10-17T01:36:06.387Z,1026.7
2022-10-17T01:37:02.097Z,1026.8
2022-10-17T01:38:02.219Z,1026.8
2022-10-17T01:39:02.048Z,1026.8
2022-10-17T01:40:02.249Z,1026.8
2022-10-17T01:41:01.966Z,1026.8
2022-10-17T01:42:02.071Z,1026.8
2022-10-17T01:43:01.831Z,1026.8
2022-10-17T01:44:01.845Z,1026.8
2022-10-17T01:45:01.680Z,1026.8
2022-10-17T01:46:02.749Z,1026.8
2022-10-17T01:47:01.734Z,1026.8
2022-10-17T01:48:02.817Z,1026.7
2022-10-17T01:49:02.592Z,1026.8
2022-10-17T01:50:02.686Z,1026.8
2022-10-17T01:51:02.476Z,1026.8
2022-10-17T01:52:02.503Z,1026.8
2022-10-17T01:53:02.483Z,1026.7
2022-10-17T01:54:02.314Z,1026.7
2022-10-17T01:55:02.446Z,1026.8
2022-10-17T01:56:02.311Z,1026.8
2022-10-17T01:57:01.985Z,1026.7
2022-10-17T01:58:02.180Z,1026.7
2022-10-17T01:59:01.983Z,1026.8
2022-10-17T02:00:02.164Z,1026.8
2022-10-17T02:01:02.405Z,1026.8
2022-10-17T02:02:02.066Z,1026.8
2022-10-17T02:03:02.120Z,1026.8
2022-10-17T02:04:01.990Z,1026.8
2022-10-17T02:06:01.829Z,1026.8
2022-10-17T02:07:01.864Z,1026.8
2022-10-17T02:08:01.768Z,1026.8
2022-10-17T02:09:01.825Z,1026.8
2022-10-17T02:10:01.775Z,1026.8
2022-10-17T02:11:02.847Z,1026.8
2022-10-17T02:12:02.603Z,1026.8
2022-10-17T02:13:02.686Z,1026.8
2022-10-17T02:14:02.669Z,1026.7
2022-10-17T02:15:02.561Z,1026.8
2022-10-17T02:16:02.338Z,1026.7
2022-10-17T02:17:02.205Z,1026.8
2022-10-17T02:18:02.327Z,1026.8
2022-10-17T02:19:02.121Z,1026.8
2022-10-17T02:20:02.174Z,1026.9
2022-10-17T02:21:01.995Z,1026.9
2022-10-17T02:22:02.038Z,1026.9
2022-10-17T02:23:01.845Z,1026.9
2022-10-17T02:24:02.031Z,1026.8
2022-10-17T02:25:01.824Z,1026.8
2022-10-17T02:26:01.788Z,1026.8
2022-10-17T02:27:01.726Z,1026.8
2022-10-17T02:28:02.811Z,1026.7
2022-10-17T02:29:02.752Z,1026.8
2022-10-17T02:30:02.632Z,1026.7
2022-10-17T02:31:02.469Z,1026.8
2022-10-17T02:32:02.238Z,1026.7
2022-10-17T02:33:02.309Z,1026.8
2022-10-17T02:34:02.043Z,1026.8
2022-10-17T02:35:02.154Z,1026.8
2022-10-17T02:36:01.940Z,1026.8
2022-10-17T02:37:01.942Z,1026.8
2022-10-17T02:38:01.772Z,1026.8
2022-10-17T02:39:01.877Z,1026.8
2022-10-17T02:40:02.781Z,1026.7
2022-10-17T02:41:02.595Z,1026.7
2022-10-17T02:42:02.716Z,1026.7
2022-10-17T02:43:02.536Z,1026.7
2022-10-17T02:44:03.001Z,1026.7
2022-10-17T02:45:01.704Z,1026.7
2022-10-17T02:46:01.829Z,1026.7
2022-10-17T02:47:02.628Z,1026.8
2022-10-17T02:48:02.479Z,1026.8
2022-10-17T02:49:02.469Z,1026.8
2022-10-17T02:50:02.429Z,1026.9
2022-10-17T02:51:02.268Z,1026.8
2022-10-17T02:52:02.361Z,1026.9
2022-10-17T02:53:02.241Z,1026.9
2022-10-17T02:54:02.095Z,1026.9
2022-10-17T02:55:02.179Z,1026.8
2022-10-17T02:56:02.001Z,1026.9
2022-10-17T02:57:02.035Z,1026.9
2022-10-17T02:58:01.847Z,1027
2022-10-17T02:59:01.882Z,1026.9
2022-10-17T03:00:01.687Z,1026.9
2022-10-17T03:01:02.924Z,1026.9
2022-10-17T03:02:02.523Z,1026.9
2022-10-17T03:03:02.536Z,1027
2022-10-17T03:04:02.410Z,1027
2022-10-17T03:05:02.476Z,1027
2022-10-17T03:06:02.391Z,1027.1
2022-10-17T03:07:02.174Z,1027.1
2022-10-17T03:08:02.145Z,1027.1
2022-10-17T03:09:02.095Z,1027.1
2022-10-17T03:10:02.124Z,1027.1
2022-10-17T03:11:01.949Z,1027.1
2022-10-17T03:12:02.024Z,1027.2
2022-10-17T03:13:01.832Z,1027.1
2022-10-17T03:14:01.793Z,1027.1
2022-10-17T03:15:01.697Z,1027.1
2022-10-17T03:16:02.730Z,1027.1
2022-10-17T03:17:02.488Z,1027.1
2022-10-17T03:18:02.574Z,1027.1
2022-10-17T03:19:02.383Z,1027.1
2022-10-17T03:20:02.474Z,1027
2022-10-17T03:21:02.378Z,1027
2022-10-17T03:22:02.174Z,1027.1
2022-10-17T03:23:02.307Z,1027
2022-10-17T03:24:02.236Z,1027.1
2022-10-17T03:25:02.451Z,1027
2022-10-17T03:26:02.523Z,1027.1
2022-10-17T03:27:02.373Z,1027.1
2022-10-17T03:28:02.375Z,1027.1
2022-10-17T03:29:02.637Z,1027.1
2022-10-17T03:30:02.361Z,1027.1
2022-10-17T03:31:02.440Z,1027.1
2022-10-17T03:32:02.390Z,1027.1
2022-10-17T03:33:02.217Z,1027.1
2022-10-17T03:34:02.278Z,1027.2
2022-10-17T03:35:02.236Z,1027.1
2022-10-17T03:36:02.129Z,1027.1
2022-10-17T03:37:02.252Z,1027.2
2022-10-17T03:38:01.950Z,1027.2
2022-10-17T03:39:02.124Z,1027.2
2022-10-17T03:40:01.915Z,1027.2
2022-10-17T03:41:01.836Z,1027.2
2022-10-17T03:42:01.702Z,1027.2
2022-10-17T03:43:01.884Z,1027.2
2022-10-17T03:44:02.752Z,1027.2
2022-10-17T03:45:02.584Z,1027.2
2022-10-17T03:46:02.672Z,1027.2
2022-10-17T03:47:02.522Z,1027.2
2022-10-17T03:48:02.623Z,1027.2
2022-10-17T03:49:02.402Z,1027.2
2022-10-17T03:50:02.674Z,1027.2
2022-10-17T03:51:02.538Z,1027.2
2022-10-17T03:52:02.589Z,1027.2
2022-10-17T03:53:02.416Z,1027.2
2022-10-17T03:54:02.585Z,1027.2
2022-10-17T03:55:02.382Z,1027.2
2022-10-17T03:56:02.342Z,1027.2
2022-10-17T03:57:02.293Z,1027.2
2022-10-17T03:58:02.221Z,1027.2
2022-10-17T03:59:02.183Z,1027.2
2022-10-17T04:00:02.122Z,1027.3
2022-10-17T04:01:02.336Z,1027.3
2022-10-17T04:02:02.022Z,1027.3
2022-10-17T04:03:02.093Z,1027.2
2022-10-17T04:04:01.927Z,1027.3
2022-10-17T04:05:01.890Z,1027.2
2022-10-17T04:06:01.763Z,1027.3
2022-10-17T04:07:01.811Z,1027.3
2022-10-17T04:08:05.334Z,1027.3
2022-10-17T04:09:02.049Z,1027.3
2022-10-17T04:10:02.021Z,1027.4
2022-10-17T04:11:01.919Z,1027.4
2022-10-17T04:12:01.917Z,1027.4
2022-10-17T04:13:01.704Z,1027.4
2022-10-17T04:14:01.846Z,1027.4
2022-10-17T04:15:02.774Z,1027.5
2022-10-17T04:16:02.607Z,1027.5
2022-10-17T04:17:02.516Z,1027.4
2022-10-17T04:18:02.815Z,1027.5
2022-10-17T04:19:02.822Z,1027.4
2022-10-17T04:20:02.686Z,1027.5
2022-10-17T04:21:02.554Z,1027.4
2022-10-17T04:22:02.626Z,1027.5
2022-10-17T04:23:02.425Z,1027.5
2022-10-17T04:24:02.474Z,1027.5
2022-10-17T04:25:02.396Z,1027.5
2022-10-17T04:26:02.212Z,1027.5
2022-10-17T04:27:02.231Z,1027.5
2022-10-17T04:28:02.052Z,1027.5
2022-10-17T04:29:02.019Z,1027.5
2022-10-17T04:30:01.868Z,1027.5
2022-10-17T04:31:01.838Z,1027.5
2022-10-17T04:32:02.782Z,1027.4
2022-10-17T04:33:02.561Z,1027.5
2022-10-17T04:34:02.608Z,1027.5
2022-10-17T04:35:02.466Z,1027.5
2022-10-17T04:36:02.516Z,1027.5
2022-10-17T04:37:02.447Z,1027.6
2022-10-17T04:38:02.321Z,1027.5
2022-10-17T04:39:02.509Z,1027.5
2022-10-17T04:40:02.395Z,1027.5
2022-10-17T04:41:02.198Z,1027.6
2022-10-17T04:42:02.270Z,1027.5
2022-10-17T04:43:02.333Z,1027.5
2022-10-17T04:44:02.133Z,1027.5
2022-10-17T04:45:02.198Z,1027.5
2022-10-17T04:46:01.962Z,1027.5
2022-10-17T04:47:01.914Z,1027.5
2022-10-17T04:48:01.925Z,1027.5
2022-10-17T04:49:01.737Z,1027.5
2022-10-17T04:50:01.828Z,1027.5
2022-10-17T04:51:02.743Z,1027.5
2022-10-17T04:52:02.593Z,1027.5
2022-10-17T04:53:02.623Z,1027.5
2022-10-17T04:54:02.504Z,1027.5
2022-10-17T04:55:02.556Z,1027.5
2022-10-17T04:56:02.353Z,1027.5
2022-10-17T04:57:02.379Z,1027.4
2022-10-17T04:58:02.316Z,1027.4
2022-10-17T04:59:02.161Z,1027.4
2022-10-17T05:00:02.490Z,1027.4
2022-10-17T05:01:02.565Z,1027.5
2022-10-17T05:02:01.751Z,1027.4
2022-10-17T05:03:01.811Z,1027.4
2022-10-17T05:04:02.827Z,1027.4
2022-10-17T05:05:02.672Z,1027.4
2022-10-17T05:06:02.665Z,1027.5
2022-10-17T05:07:02.531Z,1027.5
2022-10-17T05:08:02.570Z,1027.5
2022-10-17T05:09:02.364Z,1027.5
2022-10-17T05:10:02.544Z,1027.5
2022-10-17T05:11:02.451Z,1027.6
2022-10-17T05:12:10.383Z,1027.5
2022-10-17T05:13:02.288Z,1027.6
2022-10-17T05:14:02.493Z,1027.6
2022-10-17T05:15:02.370Z,1027.6
2022-10-17T05:16:02.295Z,1027.6
2022-10-17T05:17:02.327Z,1027.6
2022-10-17T05:18:02.370Z,1027.6
2022-10-17T05:19:02.304Z,1027.6
2022-10-17T05:20:02.150Z,1027.6
2022-10-17T05:21:02.126Z,1027.7
2022-10-17T05:22:01.905Z,1027.6
2022-10-17T05:23:01.968Z,1027.6
2022-10-17T05:24:01.750Z,1027.7
2022-10-17T05:25:01.819Z,1027.7
2022-10-17T05:26:02.843Z,1027.7
2022-10-17T05:27:02.793Z,1027.7
2022-10-17T05:28:02.618Z,1027.8
2022-10-17T05:29:02.691Z,1027.7
2022-10-17T05:30:02.589Z,1027.8
2022-10-17T05:31:02.395Z,1027.7
2022-10-17T05:33:02.410Z,1027.8
2022-10-17T05:34:02.375Z,1027.8
2022-10-17T05:35:02.200Z,1027.8
2022-10-17T05:36:02.157Z,1027.8
2022-10-17T05:37:01.993Z,1027.8
2022-10-17T05:38:02.107Z,1027.9
2022-10-17T05:39:01.934Z,1027.9
2022-10-17T05:40:01.845Z,1027.9
2022-10-17T05:41:01.720Z,1027.8
2022-10-17T05:42:02.722Z,1027.9
2022-10-17T05:43:02.611Z,1027.9
2022-10-17T05:44:06.165Z,1027.8
2022-10-17T05:45:01.842Z,1027.9
2022-10-17T05:46:01.875Z,1027.9
2022-10-17T05:47:02.714Z,1027.9
2022-10-17T05:48:02.575Z,1027.9
2022-10-17T05:49:32.465Z,1027.8
2022-10-17T05:50:01.735Z,1027.8
2022-10-17T05:51:02.496Z,1027.9
2022-10-17T05:52:02.410Z,1027.9
2022-10-17T05:53:02.208Z,1027.8
2022-10-17T05:54:02.297Z,1027.9
2022-10-17T05:55:02.130Z,1027.8
2022-10-17T05:56:02.207Z,1027.9
2022-10-17T05:57:01.977Z,1027.9
2022-10-17T05:58:01.989Z,1027.9
2022-10-17T05:59:01.816Z,1027.9
2022-10-17T06:00:01.855Z,1027.9
2022-10-17T06:01:02.778Z,1027.9
2022-10-17T06:02:02.446Z,1028
2022-10-17T06:03:02.306Z,1028
2022-10-17T06:04:02.262Z,1027.9
2022-10-17T06:05:02.012Z,1028
2022-10-17T06:06:02.073Z,1028
2022-10-17T06:07:01.892Z,1028
2022-10-17T06:08:02.597Z,1028
2022-10-17T06:09:02.398Z,1028
2022-10-17T06:10:02.279Z,1028
2022-10-17T06:11:10.824Z,1028
2022-10-17T06:12:02.699Z,1028
2022-10-17T06:13:02.592Z,1028
2022-10-17T06:14:02.646Z,1028
2022-10-17T06:15:02.546Z,1028.1
2022-10-17T06:16:02.527Z,1028.1
2022-10-17T06:17:02.453Z,1028.2
2022-10-17T06:18:02.313Z,1028.1
2022-10-17T06:19:02.366Z,1028.1
2022-10-17T06:20:02.262Z,1028.2
2022-10-17T06:21:02.059Z,1028.1
2022-10-17T06:22:02.173Z,1028.1
2022-10-17T06:23:01.975Z,1028.2
2022-10-17T06:24:02.091Z,1028.2
2022-10-17T06:25:01.776Z,1028.2
2022-10-17T06:26:01.794Z,1028.3
2022-10-17T06:27:02.742Z,1028.2
2022-10-17T06:28:02.589Z,1028.2
2022-10-17T06:29:02.935Z,1028.2
2022-10-17T06:30:02.666Z,1028.2
2022-10-17T06:31:02.725Z,1028.2
2022-10-17T06:32:02.249Z,1028.3
2022-10-17T06:33:02.260Z,1028.3
2022-10-17T06:34:02.127Z,1028.3
2022-10-17T06:35:02.229Z,1028.3
2022-10-17T06:36:01.962Z,1028.3
2022-10-17T06:37:02.051Z,1028.3
2022-10-17T06:38:01.757Z,1028.3
2022-10-17T06:39:01.793Z,1028.3
2022-10-17T06:40:02.792Z,1028.3
2022-10-17T06:41:02.586Z,1028.4
2022-10-17T06:42:02.691Z,1028.3
2022-10-17T06:43:02.578Z,1028.4
2022-10-17T06:44:02.608Z,1028.3
2022-10-17T06:45:02.433Z,1028.3
2022-10-17T06:46:02.466Z,1028.4
2022-10-17T06:47:02.357Z,1028.4
2022-10-17T06:48:02.138Z,1028.3
2022-10-17T06:49:02.156Z,1028.4
2022-10-17T06:50:02.014Z,1028.4
2022-10-17T06:51:02.041Z,1028.4
2022-10-17T06:52:01.837Z,1028.4
2022-10-17T06:53:01.868Z,1028.4
2022-10-17T06:54:01.678Z,1028.4
2022-10-17T06:56:02.418Z,1028.4
2022-10-17T06:57:02.490Z,1028.4
2022-10-17T06:58:02.426Z,1028.4
2022-10-17T06:59:02.196Z,1028.5
2022-10-17T07:00:02.285Z,1028.5
2022-10-17T07:01:02.733Z,1028.5
2022-10-17T07:02:02.470Z,1028.5
2022-10-17T07:03:02.661Z,1028.5
2022-10-17T07:04:02.461Z,1028.5
2022-10-17T07:05:02.522Z,1028.5
2022-10-17T07:06:02.426Z,1028.6
2022-10-17T07:07:02.309Z,1028.5
2022-10-17T07:08:02.333Z,1028.6
2022-10-17T07:09:02.237Z,1028.5
2022-10-17T07:10:02.110Z,1028.5
2022-10-17T07:11:02.235Z,1028.5
2022-10-17T07:12:02.056Z,1028.5
2022-10-17T07:13:02.061Z,1028.6
2022-10-17T07:14:01.838Z,1028.6
2022-10-17T07:15:01.996Z,1028.6
2022-10-17T07:16:01.745Z,1028.6
2022-10-17T07:17:01.730Z,1028.6
2022-10-17T07:18:01.785Z,1028.6
2022-10-17T07:19:02.817Z,1028.6
2022-10-17T07:20:02.626Z,1028.6
2022-10-17T07:21:02.553Z,1028.6
2022-10-17T07:22:02.439Z,1028.6
2022-10-17T07:23:02.469Z,1028.6
2022-10-17T07:24:02.469Z,1028.7
2022-10-17T07:25:02.236Z,1028.7
2022-10-17T07:26:02.301Z,1028.7
2022-10-17T07:27:02.096Z,1028.7
2022-10-17T07:28:02.211Z,1028.7
2022-10-17T07:29:02.451Z,1028.7
2022-10-17T07:30:02.190Z,1028.7
2022-10-17T07:31:02.267Z,1028.8
2022-10-17T07:32:01.950Z,1028.8
2022-10-17T07:33:01.972Z,1028.7
2022-10-17T07:34:01.764Z,1028.7
2022-10-17T07:35:01.846Z,1028.8
2022-10-17T07:36:02.720Z,1028.8
2022-10-17T07:37:02.651Z,1028.7
2022-10-17T07:38:02.488Z,1028.8
2022-10-17T07:39:02.622Z,1028.8
2022-10-17T07:40:02.456Z,1028.7
2022-10-17T07:41:02.593Z,1028.8
2022-10-17T07:42:02.446Z,1028.8
2022-10-17T07:43:02.510Z,1028.8
2022-10-17T07:44:02.310Z,1028.8
2022-10-17T07:45:02.393Z,1028.8
2022-10-17T07:46:02.299Z,1028.7
2022-10-17T07:47:01.862Z,1028.7
2022-10-17T07:48:01.927Z,1028.9
2022-10-17T07:49:01.718Z,1028.8
2022-10-17T07:50:02.859Z,1028.8
2022-10-17T07:51:02.593Z,1028.8
2022-10-17T07:52:02.748Z,1028.8
2022-10-17T07:53:02.549Z,1028.8
2022-10-17T07:54:02.560Z,1028.8
2022-10-17T07:55:02.404Z,1028.8
2022-10-17T07:56:02.625Z,1028.9
2022-10-17T07:57:02.405Z,1028.8
2022-10-17T07:58:02.443Z,1028.8
2022-10-17T07:59:09.830Z,1028.9
2022-10-17T08:00:02.572Z,1028.8
2022-10-17T08:02:02.024Z,1028.9
2022-10-17T08:03:02.214Z,1028.8
2022-10-17T08:04:01.943Z,1028.8
2022-10-17T08:05:02.016Z,1028.9
2022-10-17T08:06:01.729Z,1028.8
2022-10-17T08:07:28.481Z,1028.8
2022-10-17T08:08:02.073Z,1028.8
2022-10-17T08:09:02.114Z,1028.8
2022-10-17T08:10:02.194Z,1028.8
2022-10-17T08:11:02.058Z,1028.8
2022-10-17T08:12:01.929Z,1028.8
2022-10-17T08:13:01.938Z,1028.8
2022-10-17T08:14:01.760Z,1028.9
2022-10-17T08:15:02.113Z,1028.9
2022-10-17T08:16:01.812Z,1028.9
2022-10-17T08:17:01.696Z,1028.9
2022-10-17T08:18:02.707Z,1028.9
2022-10-17T08:19:02.881Z,1028.9
2022-10-17T08:20:02.765Z,1028.9
2022-10-17T08:21:02.580Z,1028.9
2022-10-17T08:22:02.646Z,1028.9
2022-10-17T08:23:02.619Z,1028.9
2022-10-17T08:24:02.698Z,1028.9
2022-10-17T08:25:02.499Z,1028.9
2022-10-17T08:26:02.605Z,1028.9
2022-10-17T08:27:02.517Z,1028.9
2022-10-17T08:28:02.702Z,1028.9
2022-10-17T08:29:02.923Z,1029
2022-10-17T08:30:01.746Z,1029
2022-10-17T08:31:02.740Z,1029
2022-10-17T08:32:09.030Z,1029.1
2022-10-17T08:33:02.510Z,1029
2022-10-17T08:34:02.496Z,1029
2022-10-17T08:35:02.429Z,1029
2022-10-17T08:36:02.318Z,1029
2022-10-17T08:37:02.658Z,1028.9
2022-10-17T08:38:02.493Z,1029
2022-10-17T08:39:02.347Z,1029
2022-10-17T08:40:02.379Z,1029
2022-10-17T08:41:02.272Z,1029
2022-10-17T08:42:02.260Z,1029.1
2022-10-17T08:43:02.329Z,1029.1
2022-10-17T08:44:02.247Z,1029.1
2022-10-17T08:45:02.063Z,1029
2022-10-17T08:46:02.391Z,1029
2022-10-17T08:47:02.433Z,1029.1
2022-10-17T08:48:02.198Z,1029.1
2022-10-17T08:49:02.251Z,1029
2022-10-17T08:50:02.271Z,1029
2022-10-17T08:51:02.089Z,1029.1
2022-10-17T08:52:02.091Z,1029
2022-10-17T08:53:01.861Z,1029.1
2022-10-17T08:54:01.939Z,1029
2022-10-17T08:55:01.687Z,1029
2022-10-17T08:56:02.743Z,1029
2022-10-17T08:57:02.692Z,1029
2022-10-17T08:58:02.789Z,1029
2022-10-17T08:59:02.582Z,1028.9
2022-10-17T09:00:02.638Z,1029
2022-10-17T09:01:02.458Z,1029
2022-10-17T09:02:01.981Z,1029
2022-10-17T09:03:02.316Z,1029
2022-10-17T09:04:02.114Z,1029
2022-10-17T09:05:02.272Z,1028.9
2022-10-17T09:06:01.973Z,1028.9
2022-10-17T09:07:02.085Z,1028.9
2022-10-17T09:08:01.863Z,1029
2022-10-17T09:09:01.940Z,1029
2022-10-17T09:10:01.696Z,1029
2022-10-17T09:11:02.767Z,1029
2022-10-17T09:12:02.628Z,1029
2022-10-17T09:13:08.320Z,1029
2022-10-17T09:14:02.046Z,1028.9
2022-10-17T09:15:02.088Z,1028.9
2022-10-17T09:16:01.926Z,1028.9
2022-10-17T09:17:01.967Z,1028.9
2022-10-17T09:18:01.987Z,1029
2022-10-17T09:19:01.809Z,1028.9
2022-10-17T09:20:01.821Z,1029
2022-10-17T09:21:02.797Z,1028.9
2022-10-17T09:22:01.683Z,1028.9
2022-10-17T09:23:02.794Z,1028.9
2022-10-17T09:24:16.205Z,1028.9
2022-10-17T09:25:01.995Z,1029
2022-10-17T09:26:02.043Z,1028.9
2022-10-17T09:27:01.834Z,1029
2022-10-17T09:28:01.937Z,1028.9
2022-10-17T09:29:02.047Z,1029
2022-10-17T09:30:01.863Z,1029
2022-10-17T09:31:01.713Z,1028.9
2022-10-17T09:32:01.909Z,1028.9
2022-10-17T09:33:01.888Z,1028.9
2022-10-17T09:34:01.722Z,1028.9
2022-10-17T09:35:01.810Z,1028.9
2022-10-17T09:36:02.703Z,1028.9
2022-10-17T09:37:02.538Z,1028.9
2022-10-17T09:38:02.573Z,1028.9
2022-10-17T09:39:02.565Z,1028.9
2022-10-17T09:40:02.607Z,1029
2022-10-17T09:41:02.659Z,1028.9
2022-10-17T09:42:03.576Z,1028.9
2022-10-17T09:43:02.274Z,1029
2022-10-17T09:44:02.323Z,1028.9
2022-10-17T09:45:02.132Z,1029
2022-10-17T09:46:02.270Z,1028.9
2022-10-17T09:47:01.999Z,1029
2022-10-17T09:48:02.484Z,1029
2022-10-17T09:50:02.116Z,1029
2022-10-17T09:51:26.537Z,1029
2022-10-17T09:52:02.373Z,1029
2022-10-17T09:53:02.152Z,1029
2022-10-17T09:54:02.181Z,1029
2022-10-17T09:55:02.035Z,1029
2022-10-17T09:56:02.201Z,1029
2022-10-17T09:57:01.967Z,1029
2022-10-17T09:58:02.019Z,1029
2022-10-17T09:59:01.815Z,1029
2022-10-17T10:00:02.241Z,1029.1
2022-10-17T10:01:02.144Z,1029
2022-10-17T10:02:01.903Z,1029
2022-10-17T10:03:02.030Z,1029
2022-10-17T10:04:01.733Z,1028.9
2022-10-17T10:05:07.537Z,1028.9
2022-10-17T10:06:02.406Z,1029
2022-10-17T10:07:02.263Z,1028.9
2022-10-17T10:08:02.336Z,1028.9
2022-10-17T10:09:02.354Z,1028.9
2022-10-17T10:10:02.158Z,1028.9
2022-10-17T10:11:02.143Z,1029
2022-10-17T10:12:02.050Z,1029
2022-10-17T10:13:02.228Z,1028.9
2022-10-17T10:14:01.963Z,1029
2022-10-17T10:15:02.039Z,1029
2022-10-17T10:16:01.843Z,1029
2022-10-17T10:17:01.724Z,1029
2022-10-17T10:18:02.744Z,1029
2022-10-17T10:19:09.305Z,1029.1
2022-10-17T10:20:02.015Z,1029
2022-10-17T10:21:02.025Z,1029
2022-10-17T10:22:01.876Z,1029
2022-10-17T10:23:01.948Z,1029
2022-10-17T10:24:01.730Z,1029
2022-10-17T10:25:02.807Z,1029.1
2022-10-17T10:26:02.600Z,1028.9
2022-10-17T10:27:02.754Z,1029
2022-10-17T10:28:02.589Z,1029
2022-10-17T10:29:02.998Z,1029
2022-10-17T10:30:01.769Z,1029
2022-10-17T10:31:01.854Z,1029
2022-10-17T10:32:01.709Z,1029
2022-10-17T10:33:02.744Z,1028.9
2022-10-17T10:34:02.554Z,1028.9
2022-10-17T10:35:02.703Z,1028.8
2022-10-17T10:36:02.629Z,1028.8
2022-10-17T10:37:02.612Z,1028.9
2022-10-17T10:38:02.427Z,1028.9
2022-10-17T10:39:05.148Z,1028.9
2022-10-17T10:40:01.924Z,1029
2022-10-17T10:41:01.821Z,1028.9
2022-10-17T10:42:01.811Z,1028.9
2022-10-17T10:43:06.065Z,1028.9
2022-10-17T10:44:01.779Z,1028.9
2022-10-17T10:45:01.831Z,1028.9
2022-10-17T10:46:02.722Z,1028.9
2022-10-17T10:47:02.516Z,1028.9
2022-10-17T10:48:02.493Z,1028.9
2022-10-17T10:49:02.519Z,1028.8
2022-10-17T10:50:02.310Z,1028.9
2022-10-17T10:51:02.383Z,1028.9
2022-10-17T10:52:02.315Z,1028.8
2022-10-17T10:53:02.088Z,1028.9
2022-10-17T10:54:02.051Z,1028.8
2022-10-17T10:55:01.845Z,1028.8
2022-10-17T10:56:01.856Z,1028.8
2022-10-17T10:57:01.817Z,1028.7
2022-10-17T10:58:02.769Z,1028.8
2022-10-17T10:59:02.578Z,1028.8
2022-10-17T11:00:02.752Z,1028.8
2022-10-17T11:01:02.733Z,1028.7
2022-10-17T11:02:02.086Z,1028.8
2022-10-17T11:03:02.494Z,1028.8
2022-10-17T11:04:02.464Z,1028.8
2022-10-17T11:05:02.186Z,1028.8
2022-10-17T11:06:02.222Z,1028.8
2022-10-17T11:07:02.029Z,1028.8
2022-10-17T11:08:02.190Z,1028.8
2022-10-17T11:09:02.012Z,1028.7
2022-10-17T11:10:02.079Z,1028.8
2022-10-17T11:11:01.892Z,1028.7
2022-10-17T11:12:01.889Z,1028.8
2022-10-17T11:13:01.990Z,1028.7
2022-10-17T11:14:01.805Z,1028.7
2022-10-17T11:15:02.749Z,1028.7
2022-10-17T11:16:02.624Z,1028.7
2022-10-17T11:17:02.617Z,1028.7
2022-10-17T11:18:02.458Z,1028.6
2022-10-17T11:19:02.435Z,1028.7
2022-10-17T11:20:02.483Z,1028.7
2022-10-17T11:21:02.334Z,1028.7
2022-10-17T11:22:02.340Z,1028.7
2022-10-17T11:23:02.119Z,1028.7
2022-10-17T11:24:09.234Z,1028.6
2022-10-17T11:25:02.091Z,1028.6
2022-10-17T11:26:02.007Z,1028.7
2022-10-17T11:27:01.894Z,1028.7
2022-10-17T11:28:05.785Z,1028.6
2022-10-17T11:29:02.791Z,1028.6
2022-10-17T11:30:02.545Z,1028.6
2022-10-17T11:31:08.394Z,1028.7
2022-10-17T11:32:02.701Z,1028.7
2022-10-17T11:33:01.848Z,1028.6
2022-10-17T11:34:02.717Z,1028.6
2022-10-17T11:35:02.608Z,1028.6
2022-10-17T11:36:02.825Z,1028.6
2022-10-17T11:37:02.607Z,1028.6
2022-10-17T11:38:02.767Z,1028.6
2022-10-17T11:39:02.560Z,1028.6
2022-10-17T11:40:02.614Z,1028.6
2022-10-17T11:41:02.498Z,1028.6
2022-10-17T11:42:04.631Z,1028.6
2022-10-17T11:43:02.334Z,1028.6
2022-10-17T11:44:02.478Z,1028.6
2022-10-17T11:45:02.371Z,1028.6
2022-10-17T11:46:02.178Z,1028.6
2022-10-17T11:47:02.157Z,1028.6
2022-10-17T11:48:01.936Z,1028.5
2022-10-17T11:49:02.011Z,1028.6
2022-10-17T11:52:03.210Z,1028.6
2022-10-17T11:52:03.355Z,1028.6
2022-10-17T11:52:03.992Z,1028.6
2022-10-17T11:53:02.892Z,1028.6
2022-10-17T11:54:01.928Z,1028.5
2022-10-17T11:55:01.723Z,1028.6
2022-10-17T11:56:02.787Z,1028.6
2022-10-17T11:57:02.585Z,1028.6
2022-10-17T11:58:02.643Z,1028.5
2022-10-17T11:59:02.552Z,1028.5
2022-10-17T12:00:02.542Z,1028.6
2022-10-17T12:01:02.474Z,1028.5
2022-10-17T12:02:02.510Z,1028.5
2022-10-17T12:03:02.292Z,1028.5
2022-10-17T12:04:02.669Z,1028.5
2022-10-17T12:05:02.417Z,1028.5
2022-10-17T12:06:02.550Z,1028.5
2022-10-17T12:07:02.346Z,1028.5
2022-10-17T12:08:02.417Z,1028.5
2022-10-17T12:09:02.293Z,1028.4
2022-10-17T12:10:02.058Z,1028.5
2022-10-17T12:11:02.137Z,1028.5
2022-10-17T12:12:02.966Z,1028.5
2022-10-17T12:13:01.941Z,1028.5
2022-10-17T12:14:06.558Z,1028.5
2022-10-17T12:15:02.274Z,1028.5
2022-10-17T12:16:01.988Z,1028.5
2022-10-17T12:17:02.229Z,1028.5
2022-10-17T12:18:01.925Z,1028.5
2022-10-17T12:19:01.947Z,1028.5
2022-10-17T12:20:01.915Z,1028.5
2022-10-17T12:21:01.886Z,1028.4
2022-10-17T12:22:01.683Z,1028.4
2022-10-17T12:23:02.790Z,1028.4
2022-10-17T12:24:02.606Z,1028.5
2022-10-17T12:25:02.840Z,1028.4
2022-10-17T12:26:05.872Z,1028.4
2022-10-17T12:27:02.574Z,1028.4
2022-10-17T12:28:02.653Z,1028.3
2022-10-17T12:29:02.680Z,1028.3
2022-10-17T12:30:02.585Z,1028.4
2022-10-17T12:31:02.186Z,1028.3
2022-10-17T12:32:02.330Z,1028.4
2022-10-17T12:33:08.543Z,1028.4
2022-10-17T12:34:02.310Z,1028.4
2022-10-17T12:35:02.264Z,1028.3
2022-10-17T12:36:03.093Z,1028.4
2022-10-17T12:37:01.781Z,1028.3
2022-10-17T12:38:01.887Z,1028.3
2022-10-17T12:39:01.835Z,1028.3
2022-10-17T12:40:02.813Z,1028.4